createdAt,value
2024-04-22T00:01:32.063Z,100.00
2024-04-22T00:04:01.639Z,100.00
2024-04-22T00:06:28.800Z,100.00
2024-04-22T00:08:58.734Z,100.00
2024-04-22T00:11:25.597Z,100.00
2024-04-22T00:13:57.626Z,100.00
2024-04-22T00:16:24.731Z,100.00
2024-04-22T00:18:54.217Z,100.00
2024-04-22T00:21:21.335Z,100.00
2024-04-22T00:23:51.024Z,100.00
2024-04-22T00:26:18.040Z,100.00
2024-04-22T00:28:47.714Z,100.00
2024-04-22T00:31:17.145Z,100.00
2024-04-22T00:33:46.716Z,100.00
2024-04-22T00:36:13.581Z,100.00
2024-04-22T00:38:43.000Z,100.00
2024-04-22T00:41:09.777Z,100.00
2024-04-22T00:43:39.566Z,100.00
2024-04-22T00:46:07.665Z,100.00
2024-04-22T00:48:40.290Z,100.00
2024-04-22T00:51:07.224Z,100.00
2024-04-22T00:53:37.441Z,100.00
2024-04-22T00:56:05.259Z,100.00
2024-04-22T00:58:35.099Z,100.00
2024-04-22T01:01:03.847Z,100.00
2024-04-22T01:03:33.934Z,100.00
2024-04-22T01:06:03.503Z,100.00
2024-04-22T01:08:33.055Z,100.00
2024-04-22T01:10:59.941Z,100.00
2024-04-22T01:13:29.488Z,100.00
2024-04-22T01:15:56.321Z,100.00
2024-04-22T01:18:25.797Z,100.00
2024-04-22T01:20:52.658Z,100.00
2024-04-22T01:23:24.957Z,100.00
2024-04-22T01:25:55.958Z,100.00
2024-04-22T01:28:25.574Z,100.00
2024-04-22T01:30:52.514Z,100.00
2024-04-22T01:33:22.113Z,100.00
2024-04-22T01:35:49.156Z,100.00
2024-04-22T01:38:19.057Z,100.00
2024-04-22T01:40:48.498Z,100.00
2024-04-22T01:43:18.141Z,100.00
2024-04-22T01:45:45.031Z,100.00
2024-04-22T01:48:14.724Z,100.00
2024-04-22T01:50:41.551Z,100.00
2024-04-22T01:53:11.121Z,100.00
2024-04-22T01:55:38.177Z,100.00
2024-04-22T01:58:10.386Z,100.00
2024-04-22T02:00:38.389Z,100.00
2024-04-22T02:03:08.074Z,100.00
2024-04-22T02:05:34.875Z,100.00
2024-04-22T02:08:04.233Z,100.00
2024-04-22T02:10:31.328Z,100.00
2024-04-22T02:13:00.754Z,100.00
2024-04-22T02:15:30.705Z,100.00
2024-04-22T02:18:01.796Z,100.00
2024-04-22T02:20:28.789Z,100.00
2024-04-22T02:22:58.457Z,100.00
2024-04-22T02:25:25.382Z,100.00
2024-04-22T02:27:55.578Z,100.00
2024-04-22T02:30:22.367Z,100.00
2024-04-22T02:32:54.494Z,100.00
2024-04-22T02:35:21.279Z,100.00
2024-04-22T02:37:50.768Z,100.00
2024-04-22T02:40:17.619Z,100.00
2024-04-22T02:42:47.302Z,100.00
2024-04-22T02:45:14.682Z,100.00
2024-04-22T02:47:44.160Z,100.00
2024-04-22T02:50:14.373Z,100.00
2024-04-22T02:52:44.140Z,100.00
2024-04-22T02:55:11.359Z,100.00
2024-04-22T02:57:41.093Z,100.00
2024-04-22T03:00:08.805Z,100.00
2024-04-22T03:02:39.120Z,100.00
2024-04-22T03:05:06.171Z,100.00
2024-04-22T03:07:38.318Z,100.00
2024-04-22T03:10:05.816Z,100.00
2024-04-22T03:12:36.136Z,100.00
2024-04-22T03:15:03.907Z,98.82
2024-04-22T03:17:33.682Z,96.37
2024-04-22T03:20:00.612Z,97.33
2024-04-22T03:22:29.977Z,98.86
2024-04-22T03:25:00.946Z,95.29
2024-04-22T03:27:30.675Z,97.09
2024-04-22T03:29:57.620Z,94.59
2024-04-22T03:32:27.485Z,94.48
2024-04-22T03:34:54.720Z,93.57
2024-04-22T03:37:24.176Z,93.63
2024-04-22T03:39:53.630Z,94.40
2024-04-22T03:42:25.863Z,95.03
2024-04-22T03:44:55.532Z,94.49
2024-04-22T03:47:41.086Z,94.55
2024-04-22T03:50:10.621Z,93.80
2024-04-22T03:52:40.239Z,94.87
2024-04-22T03:55:09.827Z,94.22
2024-04-22T03:57:42.181Z,95.41
2024-04-22T04:00:09.945Z,95.30
2024-04-22T04:02:39.416Z,95.77
2024-04-22T04:05:06.546Z,96.90
2024-04-22T04:07:35.974Z,97.27
2024-04-22T04:10:02.970Z,98.51
2024-04-22T04:12:32.657Z,97.62
2024-04-22T04:15:02.068Z,97.11
2024-04-22T04:17:31.780Z,98.66
2024-04-22T04:19:58.700Z,99.25
2024-04-22T04:22:28.446Z,98.21
2024-04-22T04:24:55.575Z,98.75
2024-04-22T04:27:25.094Z,99.46
2024-04-22T04:29:52.867Z,98.82
2024-04-22T04:32:25.322Z,96.85
2024-04-22T04:34:53.350Z,97.57
2024-04-22T04:37:23.007Z,98.16
2024-04-22T04:39:50.670Z,98.18
2024-04-22T04:42:20.221Z,96.31
2024-04-22T04:44:47.319Z,95.91
2024-04-22T04:47:17.135Z,96.29
2024-04-22T04:49:47.118Z,95.40
2024-04-22T04:52:16.708Z,95.10
2024-04-22T04:54:43.492Z,94.58
2024-04-22T04:57:13.082Z,95.64
2024-04-22T04:59:39.864Z,94.94
2024-04-22T05:02:09.815Z,96.01
2024-04-22T05:04:36.774Z,95.29
2024-04-22T05:07:09.828Z,92.80
2024-04-22T05:09:37.387Z,93.46
2024-04-22T05:12:07.554Z,92.97
2024-04-22T05:14:34.417Z,92.88
2024-04-22T05:17:04.036Z,92.04
2024-04-22T05:19:30.902Z,92.29
2024-04-22T05:22:00.706Z,91.25
2024-04-22T05:24:30.193Z,90.45
2024-04-22T05:26:59.825Z,88.15
2024-04-22T05:29:26.736Z,86.10
2024-04-22T05:31:56.628Z,85.78
2024-04-22T05:34:53.626Z,85.04
2024-04-22T05:37:23.104Z,85.36
2024-04-22T05:39:55.156Z,85.41
2024-04-22T05:42:24.844Z,83.47
2024-04-22T05:44:54.309Z,85.01
2024-04-22T05:47:23.905Z,84.56
2024-04-22T05:49:51.099Z,84.13
2024-04-22T05:52:21.469Z,83.51
2024-04-22T05:54:51.517Z,84.23
2024-04-22T05:57:20.918Z,84.00
2024-04-22T05:59:50.387Z,83.22
2024-04-22T06:02:19.984Z,83.92
2024-04-22T06:04:46.845Z,83.99
2024-04-22T06:07:16.402Z,83.81
2024-04-22T06:09:43.303Z,83.24
2024-04-22T06:12:18.776Z,81.93
2024-04-22T06:14:49.421Z,82.67
2024-04-22T06:17:18.900Z,83.09
2024-04-22T06:19:45.773Z,82.27
2024-04-22T06:22:15.220Z,81.48
2024-04-22T06:24:42.031Z,81.52
2024-04-22T06:27:11.654Z,82.07
2024-04-22T06:29:38.747Z,81.54
2024-04-22T06:32:10.962Z,82.03
2024-04-22T06:34:37.863Z,82.00
2024-04-22T06:37:07.883Z,82.34
2024-04-22T06:39:34.754Z,81.57
2024-04-22T06:42:04.343Z,82.72
2024-04-22T06:44:31.118Z,81.09
2024-04-22T06:47:01.779Z,81.22
2024-04-22T06:49:31.265Z,79.32
2024-04-22T06:52:00.935Z,78.28
2024-04-22T06:54:27.813Z,76.53
2024-04-22T06:56:57.609Z,77.53
2024-04-22T06:59:24.474Z,76.95
2024-04-22T07:01:53.920Z,76.18
2024-04-22T07:04:21.234Z,75.33
2024-04-22T07:06:53.283Z,75.48
2024-04-22T07:09:20.316Z,75.31
2024-04-22T07:11:49.743Z,73.50
2024-04-22T07:14:20.764Z,74.50
2024-04-22T07:16:57.116Z,74.06
2024-04-22T07:19:24.072Z,73.47
2024-04-22T07:21:57.583Z,72.11
2024-04-22T07:24:26.654Z,70.98
2024-04-22T07:26:57.953Z,70.11
2024-04-22T07:29:25.358Z,69.29
2024-04-22T07:31:55.594Z,68.54
2024-04-22T07:34:23.111Z,66.28
2024-04-22T07:37:05.382Z,65.57
2024-04-22T07:39:35.583Z,65.07
2024-04-22T07:42:05.419Z,65.47
2024-04-22T07:44:35.213Z,65.78
2024-04-22T07:47:02.111Z,64.05
2024-04-22T07:49:31.494Z,64.84
2024-04-22T07:52:01.201Z,65.77
2024-04-22T07:54:33.002Z,65.16
2024-04-22T07:57:02.987Z,63.99
2024-04-22T07:59:30.324Z,63.15
2024-04-22T08:02:00.605Z,62.03
2024-04-22T08:04:28.007Z,60.85
2024-04-22T08:07:04.168Z,60.04
2024-04-22T08:09:31.301Z,60.29
2024-04-22T08:12:02.716Z,59.48
2024-04-22T08:14:29.800Z,59.40
2024-04-22T08:16:59.281Z,58.97
2024-04-22T08:19:26.363Z,59.59
2024-04-22T08:21:55.763Z,58.60
2024-04-22T08:24:26.505Z,59.16
2024-04-22T08:26:57.473Z,58.86
2024-04-22T08:29:26.132Z,58.80
2024-04-22T08:31:56.063Z,58.91
2024-04-22T08:34:22.856Z,58.73
2024-04-22T08:36:52.373Z,58.98
2024-04-22T08:39:19.116Z,58.86
2024-04-22T08:41:51.468Z,57.95
2024-04-22T08:44:18.655Z,58.49
2024-04-22T08:46:48.052Z,58.23
2024-04-22T08:49:15.306Z,56.09
2024-04-22T08:51:45.168Z,55.95
2024-04-22T08:54:12.493Z,56.43
2024-04-22T08:56:42.674Z,55.88
2024-04-22T08:59:21.790Z,55.60
2024-04-22T09:02:02.612Z,54.82
2024-04-22T09:04:29.621Z,54.94
2024-04-22T09:06:59.363Z,54.30
2024-04-22T09:09:38.185Z,53.67
2024-04-22T09:12:20.933Z,53.75
2024-04-22T09:15:00.570Z,52.56
2024-04-22T09:17:30.434Z,53.34
2024-04-22T09:19:57.785Z,52.94
2024-04-22T09:22:27.422Z,53.36
2024-04-22T09:24:54.538Z,52.55
2024-04-22T09:27:27.847Z,50.75
2024-04-22T09:30:05.536Z,50.76
2024-04-22T09:32:36.303Z,50.63
2024-04-22T09:35:13.565Z,50.13
2024-04-22T09:37:47.482Z,49.53
2024-04-22T09:40:16.866Z,49.34
2024-04-22T09:42:47.438Z,49.05
2024-04-22T09:45:17.408Z,48.66
2024-04-22T09:47:48.076Z,49.70
2024-04-22T09:50:18.298Z,49.02
2024-04-22T09:52:51.414Z,48.85
2024-04-22T09:55:21.187Z,46.50
2024-04-22T09:57:50.081Z,45.24
2024-04-22T10:00:23.164Z,45.69
2024-04-22T10:02:52.205Z,45.98
2024-04-22T10:05:26.289Z,43.94
2024-04-22T10:07:54.429Z,43.67
2024-04-22T10:10:24.117Z,43.19
2024-04-22T10:13:24.425Z,44.68
2024-04-22T10:15:56.809Z,44.69
2024-04-22T10:18:24.020Z,45.56
2024-04-22T10:20:56.676Z,46.54
2024-04-22T10:23:23.914Z,44.91
2024-04-22T10:25:53.425Z,42.79
2024-04-22T10:28:20.613Z,42.21
2024-04-22T10:30:50.248Z,40.05
2024-04-22T10:33:19.678Z,38.61
2024-04-22T10:35:49.560Z,36.87
2024-04-22T10:38:16.571Z,38.35
2024-04-22T10:40:46.417Z,37.95
2024-04-22T10:43:13.280Z,38.49
2024-04-22T10:45:43.024Z,38.72
2024-04-22T10:48:15.806Z,39.27
2024-04-22T10:50:52.617Z,39.77
2024-04-22T10:53:21.388Z,39.12
2024-04-22T10:55:51.045Z,39.08
2024-04-22T10:58:18.286Z,39.47
2024-04-22T11:00:51.836Z,39.59
2024-04-22T11:03:19.743Z,39.52
2024-04-22T11:05:52.125Z,40.18
2024-04-22T11:08:19.679Z,41.02
2024-04-22T11:10:49.657Z,41.62
2024-04-22T11:13:16.916Z,41.67
2024-04-22T11:15:46.838Z,41.99
2024-04-22T11:18:13.668Z,41.44
2024-04-22T11:20:43.604Z,41.32
2024-04-22T11:23:13.357Z,40.48
2024-04-22T11:25:42.867Z,39.32
2024-04-22T11:28:09.711Z,37.79
2024-04-22T11:30:41.799Z,38.27
2024-04-22T11:33:09.272Z,38.59
2024-04-22T11:35:39.545Z,39.13
2024-04-22T11:38:13.773Z,39.31
2024-04-22T11:40:46.737Z,38.67
2024-04-22T11:43:13.910Z,36.06
2024-04-22T11:45:43.977Z,35.35
2024-04-22T11:48:11.120Z,35.03
2024-04-22T11:50:41.147Z,35.51
2024-04-22T11:53:14.930Z,36.72
2024-04-22T11:55:54.204Z,37.51
2024-04-22T11:58:21.483Z,38.82
2024-04-22T12:00:51.095Z,38.56
2024-04-22T12:03:17.886Z,40.14
2024-04-22T12:05:47.629Z,40.88
2024-04-22T12:08:14.518Z,40.86
2024-04-22T12:10:44.038Z,41.24
2024-04-22T12:13:14.179Z,40.93
2024-04-22T12:15:43.996Z,40.42
2024-04-22T12:18:10.933Z,39.82
2024-04-22T12:20:40.613Z,39.98
2024-04-22T12:23:07.493Z,39.02
2024-04-22T12:25:37.216Z,39.93
2024-04-22T12:28:13.428Z,39.78
2024-04-22T12:30:50.084Z,39.42
2024-04-22T12:33:17.152Z,39.99
2024-04-22T12:35:46.808Z,40.67
2024-04-22T12:38:13.607Z,41.64
2024-04-22T12:40:43.367Z,41.98
2024-04-22T12:43:10.643Z,43.40
2024-04-22T12:45:43.020Z,43.61
2024-04-22T12:48:31.222Z,43.21
2024-04-22T12:51:01.619Z,42.27
2024-04-22T12:53:31.674Z,41.96
2024-04-22T12:56:02.048Z,42.54
2024-04-22T12:58:32.461Z,43.53
2024-04-22T13:01:05.649Z,43.89
2024-04-22T13:03:38.327Z,44.21
2024-04-22T13:06:08.484Z,44.65
2024-04-22T13:08:37.862Z,44.82
2024-04-22T13:11:05.410Z,45.04
2024-04-22T13:13:35.071Z,45.24
2024-04-22T13:16:04.645Z,45.17
2024-04-22T13:18:34.130Z,44.46
2024-04-22T13:21:06.500Z,43.54
2024-04-22T13:23:33.430Z,42.69
2024-04-22T13:26:03.013Z,42.71
2024-04-22T13:28:30.058Z,42.65
2024-04-22T13:30:59.589Z,43.80
2024-04-22T13:33:26.562Z,44.27
2024-04-22T13:35:55.982Z,44.13
2024-04-22T13:38:25.445Z,43.41
2024-04-22T13:40:55.280Z,42.48
2024-04-22T13:43:24.698Z,42.39
2024-04-22T13:45:54.348Z,42.70
2024-04-22T13:48:21.366Z,43.33
2024-04-22T13:50:50.947Z,44.02
2024-04-22T13:53:26.106Z,44.54
2024-04-22T13:56:02.459Z,44.67
2024-04-22T13:58:29.292Z,44.99
2024-04-22T14:00:58.870Z,45.22
2024-04-22T14:03:25.819Z,44.99
2024-04-22T14:05:55.215Z,45.70
2024-04-22T14:08:22.283Z,44.87
2024-04-22T14:10:51.709Z,45.59
2024-04-22T14:13:21.546Z,45.60
2024-04-22T14:15:51.005Z,44.49
2024-04-22T14:18:17.994Z,43.55
2024-04-22T14:20:47.634Z,43.74
2024-04-22T14:23:15.182Z,43.39
2024-04-22T14:25:47.132Z,43.04
2024-04-22T14:28:14.241Z,42.99
2024-04-22T14:30:46.350Z,41.89
2024-04-22T14:33:14.337Z,41.94
2024-04-22T14:35:44.005Z,42.13
2024-04-22T14:38:11.425Z,41.74
2024-04-22T14:40:40.959Z,42.12
2024-04-22T14:43:07.819Z,39.14
2024-04-22T14:45:37.586Z,39.46
2024-04-22T14:48:08.000Z,38.49
2024-04-22T14:50:37.491Z,37.98
2024-04-22T14:53:07.708Z,37.92
2024-04-22T14:55:40.529Z,37.90
2024-04-22T14:58:07.806Z,38.09
2024-04-22T15:00:37.657Z,39.35
2024-04-22T15:03:07.311Z,39.60
2024-04-22T15:05:37.400Z,39.48
2024-04-22T15:08:04.947Z,38.74
2024-04-22T15:10:34.708Z,39.07
2024-04-22T15:13:01.554Z,38.82
2024-04-22T15:15:30.984Z,39.42
2024-04-22T15:17:57.954Z,39.18
2024-04-22T15:20:31.513Z,39.18
2024-04-22T15:22:58.600Z,39.58
2024-04-22T15:25:28.150Z,40.00
2024-04-22T15:27:54.955Z,40.14
2024-04-22T15:30:24.563Z,40.58
2024-04-22T15:32:51.517Z,41.08
2024-04-22T15:35:21.034Z,40.88
2024-04-22T15:37:52.500Z,41.34
2024-04-22T15:40:22.055Z,41.18
2024-04-22T15:42:53.602Z,41.63
2024-04-22T15:45:21.125Z,41.84
2024-04-22T15:47:50.740Z,42.16
2024-04-22T15:50:21.291Z,41.48
2024-04-22T15:52:51.031Z,41.49
2024-04-22T15:55:20.887Z,42.31
2024-04-22T15:57:50.767Z,42.49
2024-04-22T16:00:23.665Z,43.27
2024-04-22T16:02:50.457Z,43.12
2024-04-22T16:05:20.090Z,43.12
2024-04-22T16:07:47.049Z,43.77
2024-04-22T16:10:19.264Z,43.37
2024-04-22T16:12:46.386Z,43.59
2024-04-22T16:15:15.791Z,43.47
2024-04-22T16:17:42.819Z,43.55
2024-04-22T16:20:12.727Z,43.75
2024-04-22T16:22:39.554Z,43.94
2024-04-22T16:25:09.316Z,44.32
2024-04-22T16:27:39.027Z,43.99
2024-04-22T16:30:09.296Z,43.47
2024-04-22T16:32:36.221Z,43.36
2024-04-22T16:35:05.876Z,44.05
2024-04-22T16:37:33.033Z,44.50
2024-04-22T16:40:02.659Z,44.21
2024-04-22T16:42:29.484Z,44.03
2024-04-22T16:45:01.549Z,44.15
2024-04-22T16:47:28.652Z,44.70
2024-04-22T16:49:58.138Z,45.23
2024-04-22T16:52:25.022Z,45.91
2024-04-22T16:54:54.463Z,46.27
2024-04-22T16:57:21.703Z,45.90
2024-04-22T16:59:51.177Z,46.07
2024-04-22T17:02:20.884Z,46.76
2024-04-22T17:04:50.627Z,48.82
2024-04-22T17:07:17.477Z,51.06
2024-04-22T17:09:48.109Z,52.74
2024-04-22T17:12:15.068Z,54.23
2024-04-22T17:14:44.961Z,55.23
2024-04-22T17:17:11.834Z,55.95
2024-04-22T17:19:43.912Z,56.75
2024-04-22T17:22:10.993Z,57.50
2024-04-22T17:24:40.501Z,57.78
2024-04-22T17:27:08.607Z,57.92
2024-04-22T17:29:38.193Z,58.54
2024-04-22T17:32:05.926Z,59.64
2024-04-22T17:34:36.231Z,61.11
2024-04-22T17:37:06.108Z,62.08
2024-04-22T17:39:35.907Z,62.33
2024-04-22T17:42:02.899Z,62.29
2024-04-22T17:44:32.316Z,63.39
2024-04-22T17:46:59.809Z,64.38
2024-04-22T17:49:29.995Z,64.66
2024-04-22T17:51:56.893Z,64.58
2024-04-22T17:54:29.123Z,63.46
2024-04-22T17:57:02.307Z,62.82
2024-04-22T17:59:36.767Z,63.31
2024-04-22T18:02:04.033Z,62.75
2024-04-22T18:04:34.034Z,62.99
2024-04-22T18:07:00.904Z,63.66
2024-04-22T18:09:34.460Z,62.73
2024-04-22T18:12:02.210Z,63.10
2024-04-22T18:14:31.663Z,63.01
2024-04-22T18:16:59.720Z,63.51
2024-04-22T18:19:29.371Z,63.55
2024-04-22T18:22:01.602Z,63.80
2024-04-22T18:24:36.443Z,64.88
2024-04-22T18:27:03.418Z,64.53
2024-04-22T18:29:32.991Z,64.77
2024-04-22T18:31:59.749Z,65.28
2024-04-22T18:34:29.372Z,65.50
2024-04-22T18:36:56.611Z,66.33
2024-04-22T18:39:26.044Z,66.66
2024-04-22T18:41:55.677Z,67.13
2024-04-22T18:44:25.929Z,67.43
2024-04-22T18:46:52.896Z,67.39
2024-04-22T18:49:22.393Z,67.22
2024-04-22T18:51:49.481Z,66.67
2024-04-22T18:54:18.900Z,67.66
2024-04-22T18:56:49.066Z,68.06
2024-04-22T18:59:19.539Z,68.51
2024-04-22T19:01:49.048Z,68.63
2024-04-22T19:04:16.483Z,69.05
2024-04-22T19:06:45.956Z,69.61
2024-04-22T19:09:12.957Z,69.53
2024-04-22T19:11:43.399Z,69.44
2024-04-22T19:14:10.337Z,68.88
2024-04-22T19:16:42.487Z,69.64
2024-04-22T19:19:09.314Z,70.26
2024-04-22T19:21:39.625Z,71.30
2024-04-22T19:24:07.501Z,70.61
2024-04-22T19:26:37.077Z,69.97
2024-04-22T19:29:03.956Z,69.46
2024-04-22T19:31:34.663Z,69.69
2024-04-22T19:34:05.062Z,69.37
2024-04-22T19:36:34.513Z,69.37
2024-04-22T19:39:01.478Z,69.46
2024-04-22T19:41:31.661Z,69.54
2024-04-22T19:44:00.743Z,69.45
2024-04-22T19:46:32.186Z,69.57
2024-04-22T19:49:00.043Z,69.94
2024-04-22T19:51:32.363Z,70.67
2024-04-22T19:53:59.102Z,69.85
2024-04-22T19:56:29.078Z,69.65
2024-04-22T19:58:56.822Z,69.95
2024-04-22T20:01:26.282Z,69.41
2024-04-22T20:03:53.191Z,68.33
2024-04-22T20:06:22.703Z,68.71
2024-04-22T20:08:52.578Z,68.48
2024-04-22T20:11:22.230Z,68.76
2024-04-22T20:13:49.134Z,68.64
2024-04-22T20:16:20.726Z,68.90
2024-04-22T20:18:54.961Z,69.08
2024-04-22T20:21:24.752Z,69.84
2024-04-22T20:23:58.194Z,69.56
2024-04-22T20:26:25.378Z,69.41
2024-04-22T20:28:55.259Z,69.83
2024-04-22T20:31:22.500Z,69.91
2024-04-22T20:33:52.532Z,69.98
2024-04-22T20:36:21.606Z,70.46
2024-04-22T20:38:51.069Z,70.71
2024-04-22T20:41:20.643Z,70.73
2024-04-22T20:43:50.498Z,71.77
2024-04-22T20:46:17.446Z,71.53
2024-04-22T20:48:47.102Z,71.59
2024-04-22T20:51:14.273Z,72.16
2024-04-22T20:53:43.880Z,72.41
2024-04-22T20:56:11.019Z,72.62
2024-04-22T20:58:43.045Z,72.87
2024-04-22T21:01:10.716Z,73.59
2024-04-22T21:03:40.307Z,74.18
2024-04-22T21:06:08.314Z,73.63
2024-04-22T21:08:37.720Z,74.07
2024-04-22T21:11:05.078Z,74.57
2024-04-22T21:13:47.504Z,74.62
2024-04-22T21:16:14.283Z,74.69
2024-04-22T21:18:43.969Z,74.95
2024-04-22T21:21:10.817Z,75.10
2024-04-22T21:23:42.731Z,76.04
2024-04-22T21:26:09.817Z,76.61
2024-04-22T21:28:39.464Z,77.26
2024-04-22T21:31:09.105Z,77.73
2024-04-22T21:36:09.551Z,77.22
2024-04-22T21:38:38.947Z,77.87
2024-04-22T21:41:05.805Z,78.27
2024-04-22T21:43:36.093Z,79.07
2024-04-22T21:46:04.155Z,79.67
2024-04-22T21:48:36.628Z,79.25
2024-04-22T21:51:03.604Z,78.55
2024-04-22T21:53:33.070Z,79.20
2024-04-22T21:56:06.518Z,79.50
2024-04-22T21:59:13.553Z,79.65
2024-04-22T22:02:18.090Z,79.48
2024-04-22T22:05:24.951Z,79.55
2024-04-22T22:07:51.883Z,79.13
2024-04-22T22:10:24.195Z,79.33
2024-04-22T22:12:51.450Z,79.27
2024-04-22T22:15:21.302Z,80.26
2024-04-22T22:17:50.444Z,81.73
2024-04-22T22:20:21.659Z,82.85
2024-04-22T22:22:48.449Z,84.32
2024-04-22T22:25:18.117Z,86.00
2024-04-22T22:27:51.347Z,88.09
2024-04-22T22:30:22.159Z,90.32
2024-04-22T22:32:48.954Z,91.57
2024-04-22T22:35:18.726Z,92.58
2024-04-22T22:37:45.542Z,93.68
2024-04-22T22:40:15.092Z,94.61
2024-04-22T22:42:44.024Z,96.31
2024-04-22T22:45:16.113Z,99.23
2024-04-22T22:47:44.230Z,100.00
2024-04-22T22:50:13.903Z,100.00
2024-04-22T22:52:40.772Z,100.00
2024-04-22T22:55:10.207Z,100.00
2024-04-22T22:57:36.965Z,100.00
2024-04-22T23:00:07.246Z,100.00
2024-04-22T23:02:36.688Z,100.00
2024-04-22T23:05:06.310Z,100.00
2024-04-22T23:07:33.429Z,100.00
2024-04-22T23:10:02.817Z,100.00
2024-04-22T23:12:29.583Z,100.00
2024-04-22T23:14:59.183Z,100.00
2024-04-22T23:17:25.963Z,100.00
2024-04-22T23:19:58.213Z,100.00
2024-04-22T23:22:25.042Z,100.00
2024-04-22T23:24:54.637Z,100.00
2024-04-22T23:27:21.382Z,100.00
2024-04-22T23:29:51.681Z,100.00
2024-04-22T23:32:18.498Z,100.00
2024-04-22T23:34:47.920Z,100.00
2024-04-22T23:37:19.542Z,100.00
2024-04-22T23:39:49.242Z,100.00
2024-04-22T23:42:16.104Z,100.00
2024-04-22T23:44:45.487Z,100.00
2024-04-22T23:47:12.331Z,100.00
2024-04-22T23:49:41.813Z,100.00
2024-04-22T23:52:09.818Z,100.00
2024-04-22T23:54:41.899Z,100.00
2024-04-22T23:57:08.745Z,100.00
2024-04-22T23:59:38.129Z,100.00
